sensor_id;sensor_type;location;lat;lon;timestamp;P1;durP1;ratioP1;P2;durP2;ratioP2
67049;SDS011;53955;52.442;13.284;2022-08-21T00:01:09;11.35;;;4.65;;
67049;SDS011;53955;52.442;13.284;2022-08-21T00:03:38;6.32;;;4.18;;
67049;SDS011;53955;52.442;13.284;2022-08-21T00:06:05;6.20;;;3.53;;
67049;SDS011;53955;52.442;13.284;2022-08-21T00:08:33;5.78;;;3.90;;
67049;SDS011;53955;52.442;13.284;2022-08-21T00:10:59;6.20;;;3.85;;
67049;SDS011;53955;52.442;13.284;2022-08-21T00:13:27;5.47;;;3.80;;
67049;SDS011;53955;52.442;13.284;2022-08-21T00:15:54;6.57;;;4.28;;
67049;SDS011;53955;52.442;13.284;2022-08-21T00:18:21;6.03;;;4.07;;
67049;SDS011;53955;52.442;13.284;2022-08-21T00:20:48;5.53;;;4.15;;
67049;SDS011;53955;52.442;13.284;2022-08-21T00:23:15;7.85;;;4.53;;
67049;SDS011;53955;52.442;13.284;2022-08-21T00:25:42;7.18;;;4.35;;
67049;SDS011;53955;52.442;13.284;2022-08-21T00:28:10;6.13;;;4.43;;
67049;SDS011;53955;52.442;13.284;2022-08-21T00:30:39;7.90;;;4.57;;
67049;SDS011;53955;52.442;13.284;2022-08-21T00:33:07;7.88;;;4.25;;
67049;SDS011;53955;52.442;13.284;2022-08-21T00:35:35;6.18;;;4.32;;
67049;SDS011;53955;52.442;13.284;2022-08-21T00:38:03;7.15;;;4.25;;
67049;SDS011;53955;52.442;13.284;2022-08-21T00:40:34;5.80;;;3.58;;
67049;SDS011;53955;52.442;13.284;2022-08-21T00:43:04;5.35;;;3.67;;
67049;SDS011;53955;52.442;13.284;2022-08-21T00:45:32;5.70;;;4.20;;
67049;SDS011;53955;52.442;13.284;2022-08-21T00:48:00;5.65;;;3.95;;
67049;SDS011;53955;52.442;13.284;2022-08-21T00:50:28;7.28;;;4.20;;
67049;SDS011;53955;52.442;13.284;2022-08-21T00:52:59;6.28;;;4.10;;
67049;SDS011;53955;52.442;13.284;2022-08-21T00:55:27;6.13;;;4.18;;
67049;SDS011;53955;52.442;13.284;2022-08-21T00:57:55;6.40;;;4.30;;
67049;SDS011;53955;52.442;13.284;2022-08-21T01:00:26;6.15;;;4.40;;
67049;SDS011;53955;52.442;13.284;2022-08-21T01:02:54;6.40;;;4.32;;
67049;SDS011;53955;52.442;13.284;2022-08-21T01:05:22;6.78;;;3.63;;
67049;SDS011;53955;52.442;13.284;2022-08-21T01:07:49;5.88;;;4.00;;
67049;SDS011;53955;52.442;13.284;2022-08-21T01:10:16;5.20;;;3.85;;
67049;SDS011;53955;52.442;13.284;2022-08-21T01:12:44;5.30;;;3.92;;
67049;SDS011;53955;52.442;13.284;2022-08-21T01:15:11;6.70;;;4.30;;
67049;SDS011;53955;52.442;13.284;2022-08-21T01:17:39;4.57;;;3.33;;
67049;SDS011;53955;52.442;13.284;2022-08-21T01:20:08;5.50;;;3.90;;
67049;SDS011;53955;52.442;13.284;2022-08-21T01:22:37;7.75;;;4.35;;
67049;SDS011;53955;52.442;13.284;2022-08-21T01:25:05;5.43;;;4.10;;
67049;SDS011;53955;52.442;13.284;2022-08-21T01:27:33;6.63;;;4.43;;
67049;SDS011;53955;52.442;13.284;2022-08-21T01:30:02;5.72;;;4.13;;
67049;SDS011;53955;52.442;13.284;2022-08-21T01:32:33;6.30;;;4.05;;
67049;SDS011;53955;52.442;13.284;2022-08-21T01:35:00;7.20;;;4.55;;
67049;SDS011;53955;52.442;13.284;2022-08-21T01:37:26;5.30;;;3.88;;
67049;SDS011;53955;52.442;13.284;2022-08-21T01:39:54;4.65;;;3.42;;
67049;SDS011;53955;52.442;13.284;2022-08-21T01:42:21;6.53;;;4.82;;
67049;SDS011;53955;52.442;13.284;2022-08-21T01:44:48;5.93;;;4.30;;
67049;SDS011;53955;52.442;13.284;2022-08-21T01:47:15;5.32;;;4.10;;
67049;SDS011;53955;52.442;13.284;2022-08-21T01:49:42;8.18;;;4.13;;
67049;SDS011;53955;52.442;13.284;2022-08-21T01:52:09;6.82;;;4.40;;
67049;SDS011;53955;52.442;13.284;2022-08-21T01:54:36;7.05;;;4.63;;
67049;SDS011;53955;52.442;13.284;2022-08-21T01:57:05;5.63;;;4.28;;
67049;SDS011;53955;52.442;13.284;2022-08-21T01:59:33;5.78;;;4.38;;
67049;SDS011;53955;52.442;13.284;2022-08-21T02:02:00;5.50;;;3.85;;
67049;SDS011;53955;52.442;13.284;2022-08-21T02:04:26;9.00;;;3.90;;
67049;SDS011;53955;52.442;13.284;2022-08-21T02:06:53;5.45;;;4.10;;
67049;SDS011;53955;52.442;13.284;2022-08-21T02:09:19;7.00;;;4.20;;
67049;SDS011;53955;52.442;13.284;2022-08-21T02:11:47;6.15;;;4.05;;
67049;SDS011;53955;52.442;13.284;2022-08-21T02:14:16;6.65;;;4.05;;
67049;SDS011;53955;52.442;13.284;2022-08-21T02:16:42;7.47;;;4.22;;
67049;SDS011;53955;52.442;13.284;2022-08-21T02:19:11;6.32;;;4.50;;
67049;SDS011;53955;52.442;13.284;2022-08-21T02:21:39;5.40;;;3.90;;
67049;SDS011;53955;52.442;13.284;2022-08-21T02:24:06;7.15;;;4.53;;
67049;SDS011;53955;52.442;13.284;2022-08-21T02:26:33;7.50;;;4.22;;
67049;SDS011;53955;52.442;13.284;2022-08-21T02:29:00;8.52;;;4.10;;
67049;SDS011;53955;52.442;13.284;2022-08-21T02:31:29;6.13;;;3.55;;
67049;SDS011;53955;52.442;13.284;2022-08-21T02:33:56;5.90;;;3.65;;
67049;SDS011;53955;52.442;13.284;2022-08-21T02:36:23;5.57;;;4.15;;
67049;SDS011;53955;52.442;13.284;2022-08-21T02:38:49;5.57;;;3.65;;
67049;SDS011;53955;52.442;13.284;2022-08-21T02:41:16;5.03;;;3.45;;
67049;SDS011;53955;52.442;13.284;2022-08-21T02:43:45;6.32;;;3.45;;
67049;SDS011;53955;52.442;13.284;2022-08-21T02:46:13;5.47;;;3.40;;
67049;SDS011;53955;52.442;13.284;2022-08-21T02:48:42;4.70;;;3.10;;
67049;SDS011;53955;52.442;13.284;2022-08-21T02:51:09;5.90;;;3.15;;
67049;SDS011;53955;52.442;13.284;2022-08-21T02:53:36;5.53;;;3.38;;
67049;SDS011;53955;52.442;13.284;2022-08-21T02:56:05;6.63;;;3.22;;
67049;SDS011;53955;52.442;13.284;2022-08-21T02:58:34;5.53;;;3.45;;
67049;SDS011;53955;52.442;13.284;2022-08-21T03:01:03;5.40;;;3.40;;
67049;SDS011;53955;52.442;13.284;2022-08-21T03:03:34;5.53;;;3.10;;
67049;SDS011;53955;52.442;13.284;2022-08-21T03:06:03;5.07;;;3.13;;
67049;SDS011;53955;52.442;13.284;2022-08-21T03:08:30;6.00;;;3.53;;
67049;SDS011;53955;52.442;13.284;2022-08-21T03:10:56;3.80;;;2.92;;
67049;SDS011;53955;52.442;13.284;2022-08-21T03:13:24;9.25;;;3.20;;
67049;SDS011;53955;52.442;13.284;2022-08-21T03:15:51;6.28;;;3.45;;
67049;SDS011;53955;52.442;13.284;2022-08-21T03:18:17;4.60;;;2.90;;
67049;SDS011;53955;52.442;13.284;2022-08-21T03:20:44;4.35;;;3.05;;
67049;SDS011;53955;52.442;13.284;2022-08-21T03:23:14;5.18;;;2.65;;
67049;SDS011;53955;52.442;13.284;2022-08-21T03:25:42;4.75;;;2.72;;
67049;SDS011;53955;52.442;13.284;2022-08-21T03:28:09;3.55;;;2.60;;
67049;SDS011;53955;52.442;13.284;2022-08-21T03:30:37;3.72;;;2.72;;
67049;SDS011;53955;52.442;13.284;2022-08-21T03:33:04;4.80;;;2.92;;
67049;SDS011;53955;52.442;13.284;2022-08-21T03:35:31;6.68;;;2.63;;
67049;SDS011;53955;52.442;13.284;2022-08-21T03:37:57;7.32;;;2.92;;
67049;SDS011;53955;52.442;13.284;2022-08-21T03:40:25;5.57;;;2.60;;
67049;SDS011;53955;52.442;13.284;2022-08-21T03:42:52;4.57;;;3.00;;
67049;SDS011;53955;52.442;13.284;2022-08-21T03:45:19;6.93;;;2.90;;
67049;SDS011;53955;52.442;13.284;2022-08-21T03:47:50;4.20;;;2.83;;
67049;SDS011;53955;52.442;13.284;2022-08-21T03:50:18;5.95;;;3.33;;
67049;SDS011;53955;52.442;13.284;2022-08-21T03:52:45;4.93;;;2.97;;
67049;SDS011;53955;52.442;13.284;2022-08-21T03:55:11;5.68;;;2.83;;
67049;SDS011;53955;52.442;13.284;2022-08-21T03:57:39;6.40;;;2.70;;
67049;SDS011;53955;52.442;13.284;2022-08-21T04:00:07;5.20;;;2.60;;
67049;SDS011;53955;52.442;13.284;2022-08-21T04:02:36;6.93;;;3.10;;
67049;SDS011;53955;52.442;13.284;2022-08-21T04:05:04;5.55;;;2.47;;
67049;SDS011;53955;52.442;13.284;2022-08-21T04:07:31;4.13;;;2.63;;
67049;SDS011;53955;52.442;13.284;2022-08-21T04:09:58;5.57;;;2.88;;
67049;SDS011;53955;52.442;13.284;2022-08-21T04:12:24;4.00;;;2.83;;
67049;SDS011;53955;52.442;13.284;2022-08-21T04:14:52;5.32;;;2.83;;
67049;SDS011;53955;52.442;13.284;2022-08-21T04:17:19;5.40;;;3.10;;
67049;SDS011;53955;52.442;13.284;2022-08-21T04:19:45;3.80;;;2.90;;
67049;SDS011;53955;52.442;13.284;2022-08-21T04:22:12;4.38;;;2.05;;
67049;SDS011;53955;52.442;13.284;2022-08-21T04:24:39;5.75;;;3.00;;
67049;SDS011;53955;52.442;13.284;2022-08-21T04:27:06;4.53;;;3.00;;
67049;SDS011;53955;52.442;13.284;2022-08-21T04:29:32;6.15;;;3.38;;
67049;SDS011;53955;52.442;13.284;2022-08-21T04:32:00;5.95;;;2.80;;
67049;SDS011;53955;52.442;13.284;2022-08-21T04:34:27;5.68;;;3.28;;
67049;SDS011;53955;52.442;13.284;2022-08-21T04:36:53;6.63;;;2.92;;
67049;SDS011;53955;52.442;13.284;2022-08-21T04:39:20;5.32;;;3.10;;
67049;SDS011;53955;52.442;13.284;2022-08-21T04:41:46;4.22;;;2.88;;
67049;SDS011;53955;52.442;13.284;2022-08-21T04:44:14;3.70;;;2.38;;
67049;SDS011;53955;52.442;13.284;2022-08-21T04:46:40;3.58;;;2.38;;
67049;SDS011;53955;52.442;13.284;2022-08-21T04:49:08;6.05;;;2.72;;
67049;SDS011;53955;52.442;13.284;2022-08-21T04:51:35;7.22;;;2.88;;
67049;SDS011;53955;52.442;13.284;2022-08-21T04:54:13;5.45;;;2.95;;
67049;SDS011;53955;52.442;13.284;2022-08-21T04:56:43;4.88;;;2.78;;
67049;SDS011;53955;52.442;13.284;2022-08-21T04:59:13;4.20;;;2.80;;
67049;SDS011;53955;52.442;13.284;2022-08-21T05:01:45;5.47;;;2.40;;
67049;SDS011;53955;52.442;13.284;2022-08-21T05:04:14;6.18;;;2.60;;
67049;SDS011;53955;52.442;13.284;2022-08-21T05:06:44;7.82;;;2.45;;
67049;SDS011;53955;52.442;13.284;2022-08-21T05:09:13;5.53;;;3.00;;
67049;SDS011;53955;52.442;13.284;2022-08-21T05:11:42;4.18;;;2.80;;
67049;SDS011;53955;52.442;13.284;2022-08-21T05:14:09;7.72;;;2.70;;
67049;SDS011;53955;52.442;13.284;2022-08-21T05:16:37;5.72;;;2.60;;
67049;SDS011;53955;52.442;13.284;2022-08-21T05:19:04;4.47;;;2.55;;
67049;SDS011;53955;52.442;13.284;2022-08-21T05:21:32;5.85;;;2.80;;
67049;SDS011;53955;52.442;13.284;2022-08-21T05:23:59;5.80;;;2.85;;
67049;SDS011;53955;52.442;13.284;2022-08-21T05:26:26;5.97;;;2.58;;
67049;SDS011;53955;52.442;13.284;2022-08-21T05:28:53;6.40;;;2.65;;
67049;SDS011;53955;52.442;13.284;2022-08-21T05:31:20;4.13;;;2.50;;
67049;SDS011;53955;52.442;13.284;2022-08-21T05:33:47;3.63;;;2.53;;
67049;SDS011;53955;52.442;13.284;2022-08-21T05:36:13;5.38;;;2.60;;
67049;SDS011;53955;52.442;13.284;2022-08-21T05:38:41;4.07;;;2.60;;
67049;SDS011;53955;52.442;13.284;2022-08-21T05:41:08;5.00;;;2.50;;
67049;SDS011;53955;52.442;13.284;2022-08-21T05:43:34;5.40;;;2.72;;
67049;SDS011;53955;52.442;13.284;2022-08-21T05:46:01;4.07;;;2.58;;
67049;SDS011;53955;52.442;13.284;2022-08-21T05:48:29;5.63;;;2.42;;
67049;SDS011;53955;52.442;13.284;2022-08-21T05:50:56;3.83;;;2.15;;
67049;SDS011;53955;52.442;13.284;2022-08-21T05:53:23;3.97;;;2.47;;
67049;SDS011;53955;52.442;13.284;2022-08-21T05:55:51;7.97;;;2.70;;
67049;SDS011;53955;52.442;13.284;2022-08-21T05:58:19;4.05;;;2.17;;
67049;SDS011;53955;52.442;13.284;2022-08-21T06:00:48;5.20;;;2.72;;
67049;SDS011;53955;52.442;13.284;2022-08-21T06:03:17;6.28;;;3.00;;
67049;SDS011;53955;52.442;13.284;2022-08-21T06:05:45;4.07;;;2.92;;
67049;SDS011;53955;52.442;13.284;2022-08-21T06:08:12;6.55;;;2.67;;
67049;SDS011;53955;52.442;13.284;2022-08-21T06:10:38;6.78;;;2.75;;
67049;SDS011;53955;52.442;13.284;2022-08-21T06:13:06;6.28;;;2.30;;
67049;SDS011;53955;52.442;13.284;2022-08-21T06:15:33;9.95;;;2.63;;
67049;SDS011;53955;52.442;13.284;2022-08-21T06:18:00;4.03;;;2.15;;
67049;SDS011;53955;52.442;13.284;2022-08-21T06:20:27;3.28;;;2.33;;
67049;SDS011;53955;52.442;13.284;2022-08-21T06:22:54;3.08;;;2.03;;
67049;SDS011;53955;52.442;13.284;2022-08-21T06:25:20;2.15;;;1.90;;
67049;SDS011;53955;52.442;13.284;2022-08-21T06:27:47;6.38;;;1.80;;
67049;SDS011;53955;52.442;13.284;2022-08-21T06:30:15;3.83;;;2.05;;
67049;SDS011;53955;52.442;13.284;2022-08-21T06:32:42;4.95;;;2.17;;
67049;SDS011;53955;52.442;13.284;2022-08-21T06:35:09;5.05;;;2.28;;
67049;SDS011;53955;52.442;13.284;2022-08-21T06:37:36;6.15;;;2.28;;
67049;SDS011;53955;52.442;13.284;2022-08-21T06:40:03;3.38;;;1.98;;
67049;SDS011;53955;52.442;13.284;2022-08-21T06:42:30;4.38;;;1.67;;
67049;SDS011;53955;52.442;13.284;2022-08-21T06:44:57;3.08;;;1.75;;
67049;SDS011;53955;52.442;13.284;2022-08-21T06:47:25;4.18;;;1.80;;
67049;SDS011;53955;52.442;13.284;2022-08-21T06:49:52;5.97;;;2.08;;
67049;SDS011;53955;52.442;13.284;2022-08-21T06:52:19;3.92;;;2.17;;
67049;SDS011;53955;52.442;13.284;2022-08-21T06:54:45;5.20;;;2.45;;
67049;SDS011;53955;52.442;13.284;2022-08-21T06:57:12;7.80;;;2.10;;
67049;SDS011;53955;52.442;13.284;2022-08-21T06:59:38;4.50;;;1.92;;
67049;SDS011;53955;52.442;13.284;2022-08-21T07:02:05;5.03;;;1.73;;
67049;SDS011;53955;52.442;13.284;2022-08-21T07:04:33;2.75;;;1.42;;
67049;SDS011;53955;52.442;13.284;2022-08-21T07:07:00;5.32;;;1.90;;
67049;SDS011;53955;52.442;13.284;2022-08-21T07:09:27;5.65;;;2.13;;
67049;SDS011;53955;52.442;13.284;2022-08-21T07:11:54;6.25;;;1.90;;
67049;SDS011;53955;52.442;13.284;2022-08-21T07:14:22;4.90;;;2.30;;
67049;SDS011;53955;52.442;13.284;2022-08-21T07:16:48;4.63;;;1.88;;
67049;SDS011;53955;52.442;13.284;2022-08-21T07:19:15;5.00;;;2.05;;
67049;SDS011;53955;52.442;13.284;2022-08-21T07:21:44;3.28;;;1.70;;
67049;SDS011;53955;52.442;13.284;2022-08-21T07:24:10;3.15;;;1.70;;
67049;SDS011;53955;52.442;13.284;2022-08-21T07:26:37;4.28;;;1.90;;
67049;SDS011;53955;52.442;13.284;2022-08-21T07:29:04;4.28;;;1.58;;
67049;SDS011;53955;52.442;13.284;2022-08-21T07:31:30;4.63;;;1.92;;
67049;SDS011;53955;52.442;13.284;2022-08-21T07:33:57;4.13;;;1.88;;
67049;SDS011;53955;52.442;13.284;2022-08-21T07:36:24;4.60;;;2.00;;
67049;SDS011;53955;52.442;13.284;2022-08-21T07:38:52;6.05;;;1.95;;
67049;SDS011;53955;52.442;13.284;2022-08-21T07:41:19;3.90;;;1.50;;
67049;SDS011;53955;52.442;13.284;2022-08-21T07:43:48;3.17;;;1.38;;
67049;SDS011;53955;52.442;13.284;2022-08-21T07:46:15;2.95;;;1.38;;
67049;SDS011;53955;52.442;13.284;2022-08-21T07:48:43;7.28;;;1.45;;
67049;SDS011;53955;52.442;13.284;2022-08-21T07:51:10;4.65;;;1.60;;
67049;SDS011;53955;52.442;13.284;2022-08-21T07:53:39;4.40;;;1.33;;
67049;SDS011;53955;52.442;13.284;2022-08-21T07:56:07;6.07;;;1.52;;
67049;SDS011;53955;52.442;13.284;2022-08-21T07:58:35;3.25;;;1.13;;
67049;SDS011;53955;52.442;13.284;2022-08-21T08:01:02;4.90;;;1.50;;
67049;SDS011;53955;52.442;13.284;2022-08-21T08:03:29;4.93;;;1.55;;
67049;SDS011;53955;52.442;13.284;2022-08-21T08:05:56;3.60;;;1.30;;
67049;SDS011;53955;52.442;13.284;2022-08-21T08:08:23;1.98;;;0.98;;
67049;SDS011;53955;52.442;13.284;2022-08-21T08:10:50;2.78;;;1.60;;
67049;SDS011;53955;52.442;13.284;2022-08-21T08:13:19;5.43;;;1.50;;
67049;SDS011;53955;52.442;13.284;2022-08-21T08:15:45;2.80;;;0.93;;
67049;SDS011;53955;52.442;13.284;2022-08-21T08:18:12;3.85;;;1.40;;
67049;SDS011;53955;52.442;13.284;2022-08-21T08:20:38;3.00;;;1.40;;
67049;SDS011;53955;52.442;13.284;2022-08-21T08:23:06;3.45;;;1.35;;
67049;SDS011;53955;52.442;13.284;2022-08-21T08:25:32;4.63;;;1.33;;
67049;SDS011;53955;52.442;13.284;2022-08-21T08:27:59;2.97;;;1.10;;
67049;SDS011;53955;52.442;13.284;2022-08-21T08:30:27;2.45;;;1.10;;
67049;SDS011;53955;52.442;13.284;2022-08-21T08:32:53;3.80;;;1.73;;
67049;SDS011;53955;52.442;13.284;2022-08-21T08:35:21;4.72;;;1.85;;
67049;SDS011;53955;52.442;13.284;2022-08-21T08:37:49;4.90;;;1.15;;
67049;SDS011;53955;52.442;13.284;2022-08-21T08:40:18;4.88;;;1.30;;
67049;SDS011;53955;52.442;13.284;2022-08-21T08:42:48;5.45;;;1.40;;
67049;SDS011;53955;52.442;13.284;2022-08-21T08:45:16;4.88;;;1.48;;
67049;SDS011;53955;52.442;13.284;2022-08-21T08:47:48;3.60;;;1.27;;
67049;SDS011;53955;52.442;13.284;2022-08-21T08:50:21;3.70;;;1.10;;
67049;SDS011;53955;52.442;13.284;2022-08-21T08:52:53;3.65;;;1.25;;
67049;SDS011;53955;52.442;13.284;2022-08-21T08:55:26;5.85;;;1.50;;
67049;SDS011;53955;52.442;13.284;2022-08-21T08:57:58;3.75;;;1.60;;
67049;SDS011;53955;52.442;13.284;2022-08-21T09:00:25;4.55;;;1.25;;
67049;SDS011;53955;52.442;13.284;2022-08-21T09:02:55;3.42;;;1.35;;
67049;SDS011;53955;52.442;13.284;2022-08-21T09:05:25;3.08;;;1.50;;
67049;SDS011;53955;52.442;13.284;2022-08-21T09:08:00;5.18;;;1.52;;
67049;SDS011;53955;52.442;13.284;2022-08-21T09:10:44;3.45;;;1.23;;
67049;SDS011;53955;52.442;13.284;2022-08-21T09:13:21;7.13;;;1.30;;
67049;SDS011;53955;52.442;13.284;2022-08-21T09:15:57;2.42;;;1.23;;
67049;SDS011;53955;52.442;13.284;2022-08-21T09:18:36;6.22;;;2.15;;
67049;SDS011;53955;52.442;13.284;2022-08-21T09:21:15;2.47;;;1.20;;
67049;SDS011;53955;52.442;13.284;2022-08-21T09:23:50;4.30;;;1.33;;
67049;SDS011;53955;52.442;13.284;2022-08-21T09:26:25;4.50;;;1.40;;
67049;SDS011;53955;52.442;13.284;2022-08-21T09:28:56;6.93;;;1.45;;
67049;SDS011;53955;52.442;13.284;2022-08-21T09:31:26;4.32;;;1.40;;
67049;SDS011;53955;52.442;13.284;2022-08-21T09:34:00;3.78;;;1.45;;
67049;SDS011;53955;52.442;13.284;2022-08-21T09:36:31;3.55;;;1.25;;
67049;SDS011;53955;52.442;13.284;2022-08-21T09:39:02;5.13;;;1.55;;
67049;SDS011;53955;52.442;13.284;2022-08-21T09:41:31;2.47;;;1.50;;
67049;SDS011;53955;52.442;13.284;2022-08-21T09:44:00;4.15;;;1.42;;
67049;SDS011;53955;52.442;13.284;2022-08-21T09:46:27;4.90;;;1.27;;
67049;SDS011;53955;52.442;13.284;2022-08-21T09:48:54;5.45;;;1.40;;
67049;SDS011;53955;52.442;13.284;2022-08-21T09:51:24;4.15;;;1.27;;
67049;SDS011;53955;52.442;13.284;2022-08-21T09:53:53;3.65;;;1.40;;
67049;SDS011;53955;52.442;13.284;2022-08-21T09:56:27;5.80;;;1.55;;
67049;SDS011;53955;52.442;13.284;2022-08-21T09:59:14;4.38;;;1.25;;
67049;SDS011;53955;52.442;13.284;2022-08-21T10:01:44;4.75;;;1.35;;
67049;SDS011;53955;52.442;13.284;2022-08-21T10:04:13;2.22;;;1.10;;
67049;SDS011;53955;52.442;13.284;2022-08-21T10:06:41;1.88;;;1.15;;
67049;SDS011;53955;52.442;13.284;2022-08-21T10:09:09;4.03;;;1.48;;
67049;SDS011;53955;52.442;13.284;2022-08-21T10:11:38;3.58;;;1.27;;
67049;SDS011;53955;52.442;13.284;2022-08-21T10:14:09;3.45;;;0.93;;
67049;SDS011;53955;52.442;13.284;2022-08-21T10:16:43;2.67;;;1.30;;
67049;SDS011;53955;52.442;13.284;2022-08-21T10:19:23;4.07;;;1.15;;
67049;SDS011;53955;52.442;13.284;2022-08-21T10:22:00;6.70;;;1.13;;
67049;SDS011;53955;52.442;13.284;2022-08-21T10:24:36;2.22;;;1.10;;
67049;SDS011;53955;52.442;13.284;2022-08-21T10:27:12;3.40;;;1.63;;
67049;SDS011;53955;52.442;13.284;2022-08-21T10:29:47;8.93;;;1.30;;
67049;SDS011;53955;52.442;13.284;2022-08-21T10:32:39;5.63;;;1.25;;
67049;SDS011;53955;52.442;13.284;2022-08-21T10:35:21;7.40;;;1.52;;
67049;SDS011;53955;52.442;13.284;2022-08-21T10:37:58;2.53;;;1.10;;
67049;SDS011;53955;52.442;13.284;2022-08-21T10:40:40;3.08;;;1.30;;
67049;SDS011;53955;52.442;13.284;2022-08-21T10:43:16;4.13;;;1.52;;
67049;SDS011;53955;52.442;13.284;2022-08-21T10:45:52;3.95;;;1.00;;
67049;SDS011;53955;52.442;13.284;2022-08-21T10:48:27;2.35;;;0.95;;
67049;SDS011;53955;52.442;13.284;2022-08-21T10:50:59;7.25;;;1.17;;
67049;SDS011;53955;52.442;13.284;2022-08-21T10:56:23;2.00;;;1.10;;
67049;SDS011;53955;52.442;13.284;2022-08-21T10:59:01;7.13;;;1.13;;
67049;SDS011;53955;52.442;13.284;2022-08-21T11:01:40;3.17;;;1.10;;
67049;SDS011;53955;52.442;13.284;2022-08-21T11:11:44;5.13;;;1.00;;
67049;SDS011;53955;52.442;13.284;2022-08-21T11:24:19;2.25;;;0.65;;
67049;SDS011;53955;52.442;13.284;2022-08-21T11:26:56;3.17;;;0.90;;
67049;SDS011;53955;52.442;13.284;2022-08-21T11:31:59;2.88;;;1.08;;
67049;SDS011;53955;52.442;13.284;2022-08-21T11:34:38;2.75;;;0.75;;
67049;SDS011;53955;52.442;13.284;2022-08-21T11:37:15;3.67;;;1.00;;
67049;SDS011;53955;52.442;13.284;2022-08-21T11:39:51;1.70;;;0.77;;
67049;SDS011;53955;52.442;13.284;2022-08-21T11:42:27;1.48;;;0.93;;
67049;SDS011;53955;52.442;13.284;2022-08-21T11:45:03;4.03;;;1.20;;
67049;SDS011;53955;52.442;13.284;2022-08-21T11:47:44;2.53;;;1.10;;
67049;SDS011;53955;52.442;13.284;2022-08-21T11:50:17;4.50;;;1.50;;
67049;SDS011;53955;52.442;13.284;2022-08-21T11:52:47;2.17;;;0.80;;
67049;SDS011;53955;52.442;13.284;2022-08-21T11:55:19;2.90;;;1.05;;
67049;SDS011;53955;52.442;13.284;2022-08-21T11:57:52;1.75;;;0.90;;
67049;SDS011;53955;52.442;13.284;2022-08-21T12:00:24;3.20;;;1.25;;
67049;SDS011;53955;52.442;13.284;2022-08-21T12:02:54;2.20;;;0.82;;
67049;SDS011;53955;52.442;13.284;2022-08-21T12:05:31;3.47;;;1.13;;
67049;SDS011;53955;52.442;13.284;2022-08-21T12:08:05;3.90;;;1.00;;
67049;SDS011;53955;52.442;13.284;2022-08-21T12:10:38;3.30;;;1.42;;
67049;SDS011;53955;52.442;13.284;2022-08-21T12:13:08;2.35;;;1.08;;
67049;SDS011;53955;52.442;13.284;2022-08-21T12:15:38;4.40;;;1.30;;
67049;SDS011;53955;52.442;13.284;2022-08-21T12:18:05;3.78;;;1.63;;
67049;SDS011;53955;52.442;13.284;2022-08-21T12:21:00;2.80;;;0.80;;
67049;SDS011;53955;52.442;13.284;2022-08-21T12:23:30;2.83;;;1.27;;
67049;SDS011;53955;52.442;13.284;2022-08-21T12:26:02;1.80;;;1.00;;
67049;SDS011;53955;52.442;13.284;2022-08-21T12:28:39;3.08;;;1.00;;
67049;SDS011;53955;52.442;13.284;2022-08-21T12:31:16;2.67;;;1.20;;
67049;SDS011;53955;52.442;13.284;2022-08-21T12:33:47;2.70;;;1.10;;
67049;SDS011;53955;52.442;13.284;2022-08-21T12:36:19;4.00;;;0.88;;
67049;SDS011;53955;52.442;13.284;2022-08-21T12:38:51;2.30;;;0.90;;
67049;SDS011;53955;52.442;13.284;2022-08-21T12:41:21;4.18;;;1.00;;
67049;SDS011;53955;52.442;13.284;2022-08-21T12:43:55;2.22;;;0.90;;
67049;SDS011;53955;52.442;13.284;2022-08-21T12:46:25;2.35;;;1.08;;
67049;SDS011;53955;52.442;13.284;2022-08-21T12:48:58;2.80;;;1.00;;
67049;SDS011;53955;52.442;13.284;2022-08-21T12:51:31;2.63;;;0.90;;
67049;SDS011;53955;52.442;13.284;2022-08-21T12:54:00;3.30;;;1.10;;
67049;SDS011;53955;52.442;13.284;2022-08-21T12:56:29;4.40;;;1.10;;
67049;SDS011;53955;52.442;13.284;2022-08-21T12:59:01;3.40;;;1.00;;
67049;SDS011;53955;52.442;13.284;2022-08-21T13:01:31;3.22;;;1.17;;
67049;SDS011;53955;52.442;13.284;2022-08-21T13:04:01;3.55;;;1.20;;
67049;SDS011;53955;52.442;13.284;2022-08-21T13:06:31;2.78;;;1.05;;
67049;SDS011;53955;52.442;13.284;2022-08-21T13:09:04;3.33;;;1.17;;
67049;SDS011;53955;52.442;13.284;2022-08-21T13:11:34;3.90;;;1.05;;
67049;SDS011;53955;52.442;13.284;2022-08-21T13:14:02;2.67;;;1.15;;
67049;SDS011;53955;52.442;13.284;2022-08-21T13:16:29;4.95;;;1.85;;
67049;SDS011;53955;52.442;13.284;2022-08-21T13:18:58;4.93;;;1.35;;
67049;SDS011;53955;52.442;13.284;2022-08-21T13:21:27;5.55;;;1.35;;
67049;SDS011;53955;52.442;13.284;2022-08-21T13:24:06;4.47;;;1.52;;
67049;SDS011;53955;52.442;13.284;2022-08-21T13:26:37;4.95;;;1.15;;
67049;SDS011;53955;52.442;13.284;2022-08-21T13:29:06;2.33;;;1.55;;
67049;SDS011;53955;52.442;13.284;2022-08-21T13:31:33;3.72;;;1.40;;
67049;SDS011;53955;52.442;13.284;2022-08-21T13:33:59;2.85;;;1.50;;
67049;SDS011;53955;52.442;13.284;2022-08-21T13:36:27;3.38;;;1.50;;
67049;SDS011;53955;52.442;13.284;2022-08-21T13:38:57;6.13;;;1.63;;
67049;SDS011;53955;52.442;13.284;2022-08-21T13:41:25;4.22;;;1.45;;
67049;SDS011;53955;52.442;13.284;2022-08-21T13:43:58;5.15;;;1.30;;
67049;SDS011;53955;52.442;13.284;2022-08-21T13:46:26;5.95;;;1.92;;
67049;SDS011;53955;52.442;13.284;2022-08-21T13:48:59;4.82;;;1.52;;
67049;SDS011;53955;52.442;13.284;2022-08-21T13:51:28;4.82;;;1.45;;
67049;SDS011;53955;52.442;13.284;2022-08-21T13:53:56;7.00;;;1.67;;
67049;SDS011;53955;52.442;13.284;2022-08-21T13:56:23;3.70;;;1.30;;
67049;SDS011;53955;52.442;13.284;2022-08-21T13:58:52;3.33;;;1.25;;
67049;SDS011;53955;52.442;13.284;2022-08-21T14:01:23;4.32;;;1.30;;
67049;SDS011;53955;52.442;13.284;2022-08-21T14:03:53;3.72;;;1.38;;
67049;SDS011;53955;52.442;13.284;2022-08-21T14:06:23;3.92;;;1.50;;
67049;SDS011;53955;52.442;13.284;2022-08-21T14:08:53;3.67;;;1.60;;
67049;SDS011;53955;52.442;13.284;2022-08-21T14:11:22;3.10;;;1.38;;
67049;SDS011;53955;52.442;13.284;2022-08-21T14:13:55;3.33;;;1.85;;
67049;SDS011;53955;52.442;13.284;2022-08-21T14:16:26;7.13;;;1.80;;
67049;SDS011;53955;52.442;13.284;2022-08-21T14:21:43;3.80;;;1.90;;
67049;SDS011;53955;52.442;13.284;2022-08-21T14:24:11;1.52;;;1.02;;
67049;SDS011;53955;52.442;13.284;2022-08-21T14:26:44;7.05;;;1.65;;
67049;SDS011;53955;52.442;13.284;2022-08-21T14:29:15;2.10;;;1.40;;
67049;SDS011;53955;52.442;13.284;2022-08-21T14:31:48;2.65;;;1.30;;
67049;SDS011;53955;52.442;13.284;2022-08-21T14:34:16;4.47;;;1.60;;
67049;SDS011;53955;52.442;13.284;2022-08-21T14:36:43;4.28;;;1.80;;
67049;SDS011;53955;52.442;13.284;2022-08-21T14:39:10;4.90;;;1.85;;
67049;SDS011;53955;52.442;13.284;2022-08-21T14:41:37;3.85;;;1.63;;
67049;SDS011;53955;52.442;13.284;2022-08-21T14:44:04;2.92;;;1.65;;
67049;SDS011;53955;52.442;13.284;2022-08-21T14:46:32;5.10;;;1.70;;
67049;SDS011;53955;52.442;13.284;2022-08-21T14:49:01;4.75;;;1.63;;
67049;SDS011;53955;52.442;13.284;2022-08-21T14:51:28;4.10;;;1.40;;
67049;SDS011;53955;52.442;13.284;2022-08-21T14:53:55;3.45;;;1.70;;
67049;SDS011;53955;52.442;13.284;2022-08-21T14:56:22;4.07;;;1.60;;
67049;SDS011;53955;52.442;13.284;2022-08-21T14:58:50;3.53;;;1.40;;
67049;SDS011;53955;52.442;13.284;2022-08-21T15:01:18;4.80;;;1.58;;
67049;SDS011;53955;52.442;13.284;2022-08-21T15:03:46;3.17;;;1.48;;
67049;SDS011;53955;52.442;13.284;2022-08-21T15:06:15;5.63;;;1.75;;
67049;SDS011;53955;52.442;13.284;2022-08-21T15:08:43;3.47;;;1.40;;
67049;SDS011;53955;52.442;13.284;2022-08-21T15:11:10;4.10;;;1.70;;